sensor_id;sensor_type;location;lat;lon;timestamp;pressure;altitude;pressure_sealevel;temperature;humidity
78857;BME280;68207;50.078;19.936;2023-05-10T00:01:15;99339.52;;;8.01;55.70
78857;BME280;68207;50.078;19.936;2023-05-10T00:03:40;99337.23;;;7.97;56.00
78857;BME280;68207;50.078;19.936;2023-05-10T00:06:06;99334.45;;;7.93;56.30
78857;BME280;68207;50.078;19.936;2023-05-10T00:08:31;99331.62;;;7.89;56.48
78857;BME280;68207;50.078;19.936;2023-05-10T00:10:56;99330.77;;;7.85;56.49
78857;BME280;68207;50.078;19.936;2023-05-10T00:13:22;99328.96;;;7.80;56.51
78857;BME280;68207;50.078;19.936;2023-05-10T00:15:47;99326.09;;;7.78;56.68
78857;BME280;68207;50.078;19.936;2023-05-10T00:18:12;99325.27;;;7.73;56.94
78857;BME280;68207;50.078;19.936;2023-05-10T00:20:38;99321.09;;;7.69;57.02
78857;BME280;68207;50.078;19.936;2023-05-10T00:23:03;99322.69;;;7.65;57.18
78857;BME280;68207;50.078;19.936;2023-05-10T00:25:28;99322.18;;;7.61;57.19
78857;BME280;68207;50.078;19.936;2023-05-10T00:27:53;99321.11;;;7.58;57.42
78857;BME280;68207;50.078;19.936;2023-05-10T00:30:20;99323.33;;;7.55;57.22
78857;BME280;68207;50.078;19.936;2023-05-10T00:32:45;99320.89;;;7.51;57.47
78857;BME280;68207;50.078;19.936;2023-05-10T00:35:13;99319.04;;;7.46;57.61
78857;BME280;68207;50.078;19.936;2023-05-10T00:37:38;99318.78;;;7.41;57.51
78857;BME280;68207;50.078;19.936;2023-05-10T00:40:04;99316.60;;;7.38;57.70
78857;BME280;68207;50.078;19.936;2023-05-10T00:42:30;99314.15;;;7.34;57.90
78857;BME280;68207;50.078;19.936;2023-05-10T00:44:55;99316.10;;;7.31;58.04
78857;BME280;68207;50.078;19.936;2023-05-10T00:47:21;99313.90;;;7.26;58.16
78857;BME280;68207;50.078;19.936;2023-05-10T00:49:47;99316.77;;;7.22;58.45
78857;BME280;68207;50.078;19.936;2023-05-10T00:52:12;99314.27;;;7.18;58.54
78857;BME280;68207;50.078;19.936;2023-05-10T00:54:38;99311.65;;;7.14;58.55
78857;BME280;68207;50.078;19.936;2023-05-10T00:57:03;99301.73;;;7.10;58.49
78857;BME280;68207;50.078;19.936;2023-05-10T00:59:29;99303.89;;;7.09;58.54
78857;BME280;68207;50.078;19.936;2023-05-10T01:01:55;99306.73;;;7.06;58.68
78857;BME280;68207;50.078;19.936;2023-05-10T01:04:20;99310.09;;;7.03;58.72
78857;BME280;68207;50.078;19.936;2023-05-10T01:06:51;99308.82;;;6.99;58.97
78857;BME280;68207;50.078;19.936;2023-05-10T01:09:16;99311.34;;;6.97;59.30
78857;BME280;68207;50.078;19.936;2023-05-10T01:11:43;99302.91;;;6.93;59.19
78857;BME280;68207;50.078;19.936;2023-05-10T01:14:09;99303.64;;;6.91;59.39
78857;BME280;68207;50.078;19.936;2023-05-10T01:16:37;99302.38;;;6.89;59.28
78857;BME280;68207;50.078;19.936;2023-05-10T01:19:12;99300.80;;;6.87;59.45
78857;BME280;68207;50.078;19.936;2023-05-10T01:21:51;99300.48;;;6.85;59.57
78857;BME280;68207;50.078;19.936;2023-05-10T01:30:05;99297.14;;;6.78;59.49
78857;BME280;68207;50.078;19.936;2023-05-10T01:32:51;99298.16;;;6.74;59.66
78857;BME280;68207;50.078;19.936;2023-05-10T01:40:39;99295.55;;;6.66;60.15
78857;BME280;68207;50.078;19.936;2023-05-10T01:43:13;99295.63;;;6.63;60.29
78857;BME280;68207;50.078;19.936;2023-05-10T01:46:02;99293.99;;;6.60;60.30
78857;BME280;68207;50.078;19.936;2023-05-10T01:48:36;99292.73;;;6.57;60.48
78857;BME280;68207;50.078;19.936;2023-05-10T01:51:04;99289.68;;;6.51;60.67
78857;BME280;68207;50.078;19.936;2023-05-10T01:53:32;99289.27;;;6.47;60.86
78857;BME280;68207;50.078;19.936;2023-05-10T01:56:00;99286.80;;;6.43;60.79
78857;BME280;68207;50.078;19.936;2023-05-10T01:58:29;99284.60;;;6.42;60.80
78857;BME280;68207;50.078;19.936;2023-05-10T02:00:57;99284.98;;;6.45;60.89
78857;BME280;68207;50.078;19.936;2023-05-10T02:03:27;99286.15;;;6.46;61.07
78857;BME280;68207;50.078;19.936;2023-05-10T02:05:54;99282.27;;;6.46;61.13
78857;BME280;68207;50.078;19.936;2023-05-10T02:08:21;99279.42;;;6.47;61.00
78857;BME280;68207;50.078;19.936;2023-05-10T02:10:49;99274.98;;;6.47;61.18
78857;BME280;68207;50.078;19.936;2023-05-10T02:13:15;99273.46;;;6.47;61.26
78857;BME280;68207;50.078;19.936;2023-05-10T02:15:42;99271.02;;;6.46;61.25
78857;BME280;68207;50.078;19.936;2023-05-10T02:18:09;99270.85;;;6.46;61.33
78857;BME280;68207;50.078;19.936;2023-05-10T02:20:36;99267.83;;;6.43;61.24
78857;BME280;68207;50.078;19.936;2023-05-10T02:23:03;99270.35;;;6.40;61.21
78857;BME280;68207;50.078;19.936;2023-05-10T02:25:29;99268.69;;;6.37;61.32
78857;BME280;68207;50.078;19.936;2023-05-10T02:27:55;99265.23;;;6.35;61.33
78857;BME280;68207;50.078;19.936;2023-05-10T02:30:22;99263.42;;;6.32;61.52
78857;BME280;68207;50.078;19.936;2023-05-10T02:32:49;99262.21;;;6.30;61.68
78857;BME280;68207;50.078;19.936;2023-05-10T02:35:15;99259.90;;;6.28;61.73
78857;BME280;68207;50.078;19.936;2023-05-10T02:37:41;99261.34;;;6.26;61.80
78857;BME280;68207;50.078;19.936;2023-05-10T02:40:09;99256.95;;;6.24;61.52
78857;BME280;68207;50.078;19.936;2023-05-10T02:42:37;99255.98;;;6.21;61.58
78857;BME280;68207;50.078;19.936;2023-05-10T02:45:10;99257.98;;;6.16;62.11
78857;BME280;68207;50.078;19.936;2023-05-10T02:47:36;99257.02;;;6.11;62.05
78857;BME280;68207;50.078;19.936;2023-05-10T02:50:02;99257.41;;;6.08;62.05
78857;BME280;68207;50.078;19.936;2023-05-10T02:52:30;99258.88;;;6.06;61.94
78857;BME280;68207;50.078;19.936;2023-05-10T02:55:02;99257.42;;;6.04;62.23
78857;BME280;68207;50.078;19.936;2023-05-10T02:57:33;99257.18;;;6.02;62.42
78857;BME280;68207;50.078;19.936;2023-05-10T03:00:00;99259.00;;;6.03;62.53
78857;BME280;68207;50.078;19.936;2023-05-10T03:02:26;99256.66;;;6.05;62.45
78857;BME280;68207;50.078;19.936;2023-05-10T03:04:52;99258.73;;;6.06;62.80
78857;BME280;68207;50.078;19.936;2023-05-10T03:07:17;99255.42;;;6.03;62.66
78857;BME280;68207;50.078;19.936;2023-05-10T03:09:46;99260.52;;;6.03;62.73
78857;BME280;68207;50.078;19.936;2023-05-10T03:18:09;99256.69;;;6.05;62.92
78857;BME280;68207;50.078;19.936;2023-05-10T03:20:39;99258.33;;;6.04;62.92
78857;BME280;68207;50.078;19.936;2023-05-10T03:23:27;99255.70;;;6.04;63.01
78857;BME280;68207;50.078;19.936;2023-05-10T03:25:52;99258.21;;;6.03;63.00
78857;BME280;68207;50.078;19.936;2023-05-10T03:28:18;99258.75;;;6.03;63.01
78857;BME280;68207;50.078;19.936;2023-05-10T03:30:45;99257.65;;;6.02;63.01
78857;BME280;68207;50.078;19.936;2023-05-10T03:33:11;99254.58;;;6.01;63.13
78857;BME280;68207;50.078;19.936;2023-05-10T03:35:37;99254.89;;;6.02;63.05
78857;BME280;68207;50.078;19.936;2023-05-10T03:38:03;99255.08;;;6.01;63.26
78857;BME280;68207;50.078;19.936;2023-05-10T03:40:28;99254.46;;;6.02;63.03
78857;BME280;68207;50.078;19.936;2023-05-10T03:42:54;99253.27;;;6.04;63.23
78857;BME280;68207;50.078;19.936;2023-05-10T03:45:20;99254.03;;;6.05;63.51
78857;BME280;68207;50.078;19.936;2023-05-10T03:47:45;99254.02;;;6.07;63.15
78857;BME280;68207;50.078;19.936;2023-05-10T03:50:11;99257.55;;;6.11;63.32
78857;BME280;68207;50.078;19.936;2023-05-10T03:52:36;99257.81;;;6.18;63.37
78857;BME280;68207;50.078;19.936;2023-05-10T03:55:04;99257.61;;;6.24;63.45
78857;BME280;68207;50.078;19.936;2023-05-10T03:57:30;99259.71;;;6.30;63.25
78857;BME280;68207;50.078;19.936;2023-05-10T03:59:55;99258.73;;;6.35;63.16
78857;BME280;68207;50.078;19.936;2023-05-10T04:02:20;99257.75;;;6.40;62.89
78857;BME280;68207;50.078;19.936;2023-05-10T04:04:45;99259.80;;;6.46;62.85
78857;BME280;68207;50.078;19.936;2023-05-10T04:07:11;99260.46;;;6.52;62.91
78857;BME280;68207;50.078;19.936;2023-05-10T04:09:36;99264.06;;;6.59;62.69
78857;BME280;68207;50.078;19.936;2023-05-10T04:12:02;99261.73;;;6.66;62.99
78857;BME280;68207;50.078;19.936;2023-05-10T04:14:27;99262.42;;;6.73;62.65
78857;BME280;68207;50.078;19.936;2023-05-10T04:16:53;99255.97;;;6.79;62.32
78857;BME280;68207;50.078;19.936;2023-05-10T04:19:18;99258.55;;;6.85;62.29
78857;BME280;68207;50.078;19.936;2023-05-10T04:21:43;99253.96;;;6.91;62.15
78857;BME280;68207;50.078;19.936;2023-05-10T04:24:08;99255.58;;;6.98;61.91
78857;BME280;68207;50.078;19.936;2023-05-10T04:26:34;99258.70;;;7.04;62.05
78857;BME280;68207;50.078;19.936;2023-05-10T04:28:59;99259.93;;;7.11;61.85
78857;BME280;68207;50.078;19.936;2023-05-10T04:31:24;99258.92;;;7.18;61.88
78857;BME280;68207;50.078;19.936;2023-05-10T04:33:50;99260.73;;;7.25;61.79
78857;BME280;68207;50.078;19.936;2023-05-10T04:36:15;99259.79;;;7.31;61.47
78857;BME280;68207;50.078;19.936;2023-05-10T04:38:40;99262.38;;;7.37;61.31
78857;BME280;68207;50.078;19.936;2023-05-10T04:41:07;99259.69;;;7.45;61.19
78857;BME280;68207;50.078;19.936;2023-05-10T04:43:33;99260.91;;;7.53;61.26
78857;BME280;68207;50.078;19.936;2023-05-10T04:45:59;99262.59;;;7.61;61.13
78857;BME280;68207;50.078;19.936;2023-05-10T04:48:24;99260.86;;;7.70;60.80
78857;BME280;68207;50.078;19.936;2023-05-10T04:50:49;99260.85;;;7.79;60.58
78857;BME280;68207;50.078;19.936;2023-05-10T04:53:15;99260.55;;;7.88;60.41
78857;BME280;68207;50.078;19.936;2023-05-10T04:55:40;99260.74;;;7.96;60.00
78857;BME280;68207;50.078;19.936;2023-05-10T04:58:05;99257.42;;;8.05;59.66
78857;BME280;68207;50.078;19.936;2023-05-10T05:00:30;99255.89;;;8.14;59.53
78857;BME280;68207;50.078;19.936;2023-05-10T05:02:56;99256.02;;;8.23;59.27
78857;BME280;68207;50.078;19.936;2023-05-10T05:05:21;99253.86;;;8.32;59.10
78857;BME280;68207;50.078;19.936;2023-05-10T05:07:46;99255.45;;;8.44;58.94
78857;BME280;68207;50.078;19.936;2023-05-10T05:10:12;99256.39;;;8.54;59.04
78857;BME280;68207;50.078;19.936;2023-05-10T05:12:37;99252.46;;;8.65;58.82
78857;BME280;68207;50.078;19.936;2023-05-10T05:15:03;99255.11;;;8.75;58.51
78857;BME280;68207;50.078;19.936;2023-05-10T05:17:30;99251.89;;;8.84;58.25
78857;BME280;68207;50.078;19.936;2023-05-10T05:19:55;99250.71;;;8.94;58.07
78857;BME280;68207;50.078;19.936;2023-05-10T05:22:21;99249.30;;;9.04;57.97
78857;BME280;68207;50.078;19.936;2023-05-10T05:24:52;99248.73;;;9.15;58.05
78857;BME280;68207;50.078;19.936;2023-05-10T05:27:18;99250.65;;;9.25;57.37
78857;BME280;68207;50.078;19.936;2023-05-10T05:29:43;99245.85;;;9.36;57.38
78857;BME280;68207;50.078;19.936;2023-05-10T05:32:08;99242.86;;;9.46;57.01
78857;BME280;68207;50.078;19.936;2023-05-10T05:34:34;99241.58;;;9.55;56.78
78857;BME280;68207;50.078;19.936;2023-05-10T05:36:59;99244.73;;;9.64;56.67
78857;BME280;68207;50.078;19.936;2023-05-10T05:39:24;99245.16;;;9.73;56.26
78857;BME280;68207;50.078;19.936;2023-05-10T05:41:49;99245.49;;;9.82;56.14
78857;BME280;68207;50.078;19.936;2023-05-10T05:44:15;99249.80;;;9.91;56.18
78857;BME280;68207;50.078;19.936;2023-05-10T05:46:40;99245.91;;;10.01;55.98
78857;BME280;68207;50.078;19.936;2023-05-10T05:49:05;99247.14;;;10.12;55.84
78857;BME280;68207;50.078;19.936;2023-05-10T05:51:30;99249.13;;;10.23;55.69
78857;BME280;68207;50.078;19.936;2023-05-10T05:53:56;99251.39;;;10.33;55.36
78857;BME280;68207;50.078;19.936;2023-05-10T05:56:21;99254.25;;;10.42;55.10
78857;BME280;68207;50.078;19.936;2023-05-10T05:58:51;99252.98;;;10.52;55.12
78857;BME280;68207;50.078;19.936;2023-05-10T06:01:16;99255.46;;;10.62;54.82
78857;BME280;68207;50.078;19.936;2023-05-10T06:03:42;99256.35;;;10.72;54.59
78857;BME280;68207;50.078;19.936;2023-05-10T06:06:07;99252.71;;;10.81;54.48
78857;BME280;68207;50.078;19.936;2023-05-10T06:08:33;99248.83;;;10.90;54.44
78857;BME280;68207;50.078;19.936;2023-05-10T06:10:59;99254.95;;;11.04;54.22
78857;BME280;68207;50.078;19.936;2023-05-10T06:13:25;99254.25;;;11.14;54.17
78857;BME280;68207;50.078;19.936;2023-05-10T06:15:53;99256.52;;;11.23;53.85
78857;BME280;68207;50.078;19.936;2023-05-10T06:18:19;99251.80;;;11.34;53.93
78857;BME280;68207;50.078;19.936;2023-05-10T06:20:44;99253.88;;;11.44;53.69
78857;BME280;68207;50.078;19.936;2023-05-10T06:23:09;99256.14;;;11.54;53.22
78857;BME280;68207;50.078;19.936;2023-05-10T06:25:34;99253.05;;;11.64;53.09
78857;BME280;68207;50.078;19.936;2023-05-10T06:28:00;99254.86;;;11.74;52.86
78857;BME280;68207;50.078;19.936;2023-05-10T06:30:25;99254.22;;;11.86;52.88
78857;BME280;68207;50.078;19.936;2023-05-10T06:32:54;99257.81;;;11.99;52.67
78857;BME280;68207;50.078;19.936;2023-05-10T06:35:19;99253.95;;;12.09;52.34
78857;BME280;68207;50.078;19.936;2023-05-10T06:37:45;99252.42;;;12.21;52.11
78857;BME280;68207;50.078;19.936;2023-05-10T06:40:11;99251.47;;;12.34;52.16
78857;BME280;68207;50.078;19.936;2023-05-10T06:42:36;99253.21;;;12.46;51.80
78857;BME280;68207;50.078;19.936;2023-05-10T06:45:03;99253.09;;;12.58;51.37
78857;BME280;68207;50.078;19.936;2023-05-10T06:47:28;99252.98;;;12.69;51.16
78857;BME280;68207;50.078;19.936;2023-05-10T06:49:53;99251.23;;;12.82;51.18
78857;BME280;68207;50.078;19.936;2023-05-10T06:52:19;99250.14;;;12.98;50.92
78857;BME280;68207;50.078;19.936;2023-05-10T06:54:44;99251.46;;;13.12;50.49
78857;BME280;68207;50.078;19.936;2023-05-10T06:57:09;99251.96;;;13.26;49.87
78857;BME280;68207;50.078;19.936;2023-05-10T06:59:34;99250.02;;;13.41;49.53
78857;BME280;68207;50.078;19.936;2023-05-10T07:02:01;99245.29;;;13.56;49.22
78857;BME280;68207;50.078;19.936;2023-05-10T07:04:26;99244.98;;;13.71;48.83
78857;BME280;68207;50.078;19.936;2023-05-10T07:06:51;99243.26;;;13.83;48.23
78857;BME280;68207;50.078;19.936;2023-05-10T07:09:17;99240.31;;;13.97;48.19
78857;BME280;68207;50.078;19.936;2023-05-10T07:11:42;99236.36;;;14.13;48.07
78857;BME280;68207;50.078;19.936;2023-05-10T07:14:07;99243.23;;;14.29;47.37
78857;BME280;68207;50.078;19.936;2023-05-10T07:16:32;99240.05;;;14.44;47.29
78857;BME280;68207;50.078;19.936;2023-05-10T07:18:57;99240.86;;;14.60;47.25
78857;BME280;68207;50.078;19.936;2023-05-10T07:21:23;99243.27;;;14.79;47.16
78857;BME280;68207;50.078;19.936;2023-05-10T07:23:49;99243.03;;;15.01;47.17
78857;BME280;68207;50.078;19.936;2023-05-10T07:26:15;99243.73;;;15.23;46.63
78857;BME280;68207;50.078;19.936;2023-05-10T07:28:40;99244.45;;;15.44;46.25
78857;BME280;68207;50.078;19.936;2023-05-10T07:31:06;99242.10;;;15.65;45.81
78857;BME280;68207;50.078;19.936;2023-05-10T07:33:31;99242.40;;;15.84;45.26
78857;BME280;68207;50.078;19.936;2023-05-10T07:35:56;99241.73;;;16.03;45.04
78857;BME280;68207;50.078;19.936;2023-05-10T07:38:22;99238.80;;;16.20;44.62
78857;BME280;68207;50.078;19.936;2023-05-10T07:40:47;99240.48;;;16.37;44.26
78857;BME280;68207;50.078;19.936;2023-05-10T07:43:12;99236.81;;;16.52;43.90
78857;BME280;68207;50.078;19.936;2023-05-10T07:45:38;99240.50;;;16.68;43.66
78857;BME280;68207;50.078;19.936;2023-05-10T07:48:03;99238.90;;;16.81;43.39
78857;BME280;68207;50.078;19.936;2023-05-10T07:50:28;99234.25;;;16.96;43.29
78857;BME280;68207;50.078;19.936;2023-05-10T07:52:54;99237.21;;;17.14;43.06
78857;BME280;68207;50.078;19.936;2023-05-10T07:55:19;99232.04;;;17.34;42.65
78857;BME280;68207;50.078;19.936;2023-05-10T07:57:46;99232.00;;;17.49;42.27
78857;BME280;68207;50.078;19.936;2023-05-10T08:00:17;99226.95;;;17.68;42.22
78857;BME280;68207;50.078;19.936;2023-05-10T08:02:43;99225.40;;;17.88;41.40
78857;BME280;68207;50.078;19.936;2023-05-10T08:05:08;99224.42;;;17.95;41.00
78857;BME280;68207;50.078;19.936;2023-05-10T08:07:34;99221.64;;;18.09;41.00
78857;BME280;68207;50.078;19.936;2023-05-10T08:10:00;99220.18;;;18.26;41.09
78857;BME280;68207;50.078;19.936;2023-05-10T08:12:25;99216.59;;;18.48;41.22
78857;BME280;68207;50.078;19.936;2023-05-10T08:14:50;99215.65;;;18.69;40.38
78857;BME280;68207;50.078;19.936;2023-05-10T08:17:16;99218.08;;;18.85;39.78
78857;BME280;68207;50.078;19.936;2023-05-10T08:19:41;99215.05;;;19.01;39.54
78857;BME280;68207;50.078;19.936;2023-05-10T08:22:06;99211.42;;;19.19;39.03
78857;BME280;68207;50.078;19.936;2023-05-10T08:24:31;99206.34;;;19.37;38.86
78857;BME280;68207;50.078;19.936;2023-05-10T08:26:57;99204.41;;;19.56;38.53
78857;BME280;68207;50.078;19.936;2023-05-10T08:29:22;99200.73;;;19.73;38.04
78857;BME280;68207;50.078;19.936;2023-05-10T08:31:48;99200.93;;;19.88;37.15
78857;BME280;68207;50.078;19.936;2023-05-10T08:34:13;99200.82;;;20.01;36.67
78857;BME280;68207;50.078;19.936;2023-05-10T08:36:38;99206.95;;;20.12;36.16
78857;BME280;68207;50.078;19.936;2023-05-10T08:39:03;99205.23;;;20.20;36.02
78857;BME280;68207;50.078;19.936;2023-05-10T08:41:29;99202.13;;;20.30;36.14
78857;BME280;68207;50.078;19.936;2023-05-10T08:43:56;99205.81;;;20.43;35.40
78857;BME280;68207;50.078;19.936;2023-05-10T08:46:22;99204.26;;;20.49;34.37
78857;BME280;68207;50.078;19.936;2023-05-10T08:48:49;99204.52;;;20.60;34.65
78857;BME280;68207;50.078;19.936;2023-05-10T08:51:21;99202.64;;;20.72;33.92
78857;BME280;68207;50.078;19.936;2023-05-10T08:53:47;99204.60;;;20.89;33.63
78857;BME280;68207;50.078;19.936;2023-05-10T08:56:13;99203.49;;;21.08;33.38
78857;BME280;68207;50.078;19.936;2023-05-10T08:58:40;99204.09;;;21.25;33.20
78857;BME280;68207;50.078;19.936;2023-05-10T09:01:07;99204.36;;;21.39;32.39
78857;BME280;68207;50.078;19.936;2023-05-10T09:03:32;99201.00;;;21.51;32.38
78857;BME280;68207;50.078;19.936;2023-05-10T09:05:58;99201.95;;;21.60;31.97
78857;BME280;68207;50.078;19.936;2023-05-10T09:08:24;99200.36;;;21.68;32.14
78857;BME280;68207;50.078;19.936;2023-05-10T09:10:54;99196.92;;;21.80;31.52
78857;BME280;68207;50.078;19.936;2023-05-10T09:13:21;99197.98;;;21.95;31.64
78857;BME280;68207;50.078;19.936;2023-05-10T09:15:47;99199.81;;;22.09;31.16
78857;BME280;68207;50.078;19.936;2023-05-10T09:18:13;99195.70;;;22.22;30.80
78857;BME280;68207;50.078;19.936;2023-05-10T09:20:38;99196.28;;;22.33;30.24
78857;BME280;68207;50.078;19.936;2023-05-10T09:23:03;99195.91;;;22.40;29.86
78857;BME280;68207;50.078;19.936;2023-05-10T09:25:30;99198.63;;;22.44;29.30
78857;BME280;68207;50.078;19.936;2023-05-10T09:27:55;99198.30;;;22.49;29.33
78857;BME280;68207;50.078;19.936;2023-05-10T09:32:50;99196.80;;;22.56;28.35
78857;BME280;68207;50.078;19.936;2023-05-10T09:35:18;99197.13;;;22.53;28.28
78857;BME280;68207;50.078;19.936;2023-05-10T09:37:45;99190.73;;;22.58;28.60
78857;BME280;68207;50.078;19.936;2023-05-10T09:40:14;99201.55;;;22.72;28.15
78857;BME280;68207;50.078;19.936;2023-05-10T09:42:41;99195.12;;;22.79;28.27
78857;BME280;68207;50.078;19.936;2023-05-10T09:45:07;99198.59;;;22.93;28.28
78857;BME280;68207;50.078;19.936;2023-05-10T09:47:34;99189.84;;;23.10;28.18
78857;BME280;68207;50.078;19.936;2023-05-10T09:50:00;99194.23;;;23.27;27.61
78857;BME280;68207;50.078;19.936;2023-05-10T09:52:29;99195.78;;;23.40;27.45
78857;BME280;68207;50.078;19.936;2023-05-10T09:54:55;99195.01;;;23.48;27.48
78857;BME280;68207;50.078;19.936;2023-05-10T09:57:21;99192.73;;;23.63;27.34
78857;BME280;68207;50.078;19.936;2023-05-10T09:59:47;99183.27;;;23.70;26.61
78857;BME280;68207;50.078;19.936;2023-05-10T10:02:12;99190.38;;;23.79;26.57
78857;BME280;68207;50.078;19.936;2023-05-10T10:04:42;99181.46;;;23.84;26.41
78857;BME280;68207;50.078;19.936;2023-05-10T10:07:08;99182.77;;;23.81;26.07
78857;BME280;68207;50.078;19.936;2023-05-10T10:09:34;99181.79;;;23.77;27.02
78857;BME280;68207;50.078;19.936;2023-05-10T10:12:00;99181.02;;;23.88;26.45
78857;BME280;68207;50.078;19.936;2023-05-10T10:14:26;99181.23;;;24.03;25.95
78857;BME280;68207;50.078;19.936;2023-05-10T10:16:52;99186.52;;;24.11;25.23
78857;BME280;68207;50.078;19.936;2023-05-10T10:19:20;99179.59;;;24.10;25.47
78857;BME280;68207;50.078;19.936;2023-05-10T10:21:49;99171.26;;;24.20;25.63
78857;BME280;68207;50.078;19.936;2023-05-10T10:24:15;99169.42;;;24.34;25.61
78857;BME280;68207;50.078;19.936;2023-05-10T10:26:41;99167.16;;;24.47;25.67
78857;BME280;68207;50.078;19.936;2023-05-10T10:29:21;99167.10;;;24.65;25.85
78857;BME280;68207;50.078;19.936;2023-05-10T10:34:30;99161.93;;;25.10;25.42
78857;BME280;68207;50.078;19.936;2023-05-10T10:36:57;99163.45;;;25.37;24.66
78857;BME280;68207;50.078;19.936;2023-05-10T10:39:24;99165.61;;;25.52;23.65
78857;BME280;68207;50.078;19.936;2023-05-10T10:41:55;99162.42;;;25.62;23.12
78857;BME280;68207;50.078;19.936;2023-05-10T10:47:28;99160.60;;;25.44;22.95
78857;BME280;68207;50.078;19.936;2023-05-10T10:50:04;99160.75;;;25.56;23.40
78857;BME280;68207;50.078;19.936;2023-05-10T10:52:37;99158.16;;;25.58;22.52
78857;BME280;68207;50.078;19.936;2023-05-10T10:57:44;99143.77;;;25.83;22.37
78857;BME280;68207;50.078;19.936;2023-05-10T11:02:54;99137.13;;;26.19;22.98
78857;BME280;68207;50.078;19.936;2023-05-10T11:08:00;99129.98;;;26.25;22.37
78857;BME280;68207;50.078;19.936;2023-05-10T11:10:31;99130.05;;;26.36;21.38
78857;BME280;68207;50.078;19.936;2023-05-10T11:13:00;99129.25;;;26.48;21.18
78857;BME280;68207;50.078;19.936;2023-05-10T11:15:36;99130.01;;;26.64;20.97
78857;BME280;68207;50.078;19.936;2023-05-10T11:18:23;99128.31;;;26.78;21.05
78857;BME280;68207;50.078;19.936;2023-05-10T11:21:02;99122.52;;;26.92;21.11
78857;BME280;68207;50.078;19.936;2023-05-10T11:23:52;99121.02;;;27.03;20.72
78857;BME280;68207;50.078;19.936;2023-05-10T11:26:21;99125.49;;;26.85;20.74
78857;BME280;68207;50.078;19.936;2023-05-10T11:28:48;99120.33;;;26.77;20.72
78857;BME280;68207;50.078;19.936;2023-05-10T11:31:18;99116.23;;;26.73;20.95
78857;BME280;68207;50.078;19.936;2023-05-10T11:33:44;99116.84;;;26.84;21.13
78857;BME280;68207;50.078;19.936;2023-05-10T11:36:21;99110.05;;;26.98;21.32
78857;BME280;68207;50.078;19.936;2023-05-10T11:38:48;99113.98;;;27.17;21.12
78857;BME280;68207;50.078;19.936;2023-05-10T11:41:15;99117.77;;;27.19;20.69
78857;BME280;68207;50.078;19.936;2023-05-10T11:43:42;99112.87;;;27.21;20.72
78857;BME280;68207;50.078;19.936;2023-05-10T11:46:11;99108.45;;;27.23;20.47
78857;BME280;68207;50.078;19.936;2023-05-10T11:48:40;99105.08;;;27.26;20.80
78857;BME280;68207;50.078;19.936;2023-05-10T11:51:07;99106.14;;;27.34;20.81
78857;BME280;68207;50.078;19.936;2023-05-10T11:53:33;99107.97;;;27.24;20.45
78857;BME280;68207;50.078;19.936;2023-05-10T11:56:09;99102.20;;;27.03;20.89
78857;BME280;68207;50.078;19.936;2023-05-10T11:58:35;99100.05;;;27.06;20.87
78857;BME280;68207;50.078;19.936;2023-05-10T12:01:02;99101.81;;;26.96;20.67
78857;BME280;68207;50.078;19.936;2023-05-10T12:03:28;99096.55;;;26.90;21.25
78857;BME280;68207;50.078;19.936;2023-05-10T12:05:54;99098.55;;;27.03;21.24
78857;BME280;68207;50.078;19.936;2023-05-10T12:08:22;99090.90;;;27.10;21.09
78857;BME280;68207;50.078;19.936;2023-05-10T12:10:47;99086.05;;;27.11;20.85
78857;BME280;68207;50.078;19.936;2023-05-10T12:13:14;99087.52;;;27.12;20.96
78857;BME280;68207;50.078;19.936;2023-05-10T12:15:39;99087.58;;;27.12;21.13
78857;BME280;68207;50.078;19.936;2023-05-10T12:18:05;99082.52;;;27.23;21.26
78857;BME280;68207;50.078;19.936;2023-05-10T12:20:30;99081.14;;;27.30;21.02
78857;BME280;68207;50.078;19.936;2023-05-10T12:22:57;99087.18;;;27.33;20.80
78857;BME280;68207;50.078;19.936;2023-05-10T12:25:24;99090.80;;;27.26;20.97
78857;BME280;68207;50.078;19.936;2023-05-10T12:27:56;99091.25;;;27.21;20.58
78857;BME280;68207;50.078;19.936;2023-05-10T12:30:23;99090.64;;;27.06;21.10
78857;BME280;68207;50.078;19.936;2023-05-10T12:32:49;99079.50;;;26.93;21.20
78857;BME280;68207;50.078;19.936;2023-05-10T12:35:15;99073.89;;;26.84;21.56
78857;BME280;68207;50.078;19.936;2023-05-10T12:37:42;99073.03;;;26.96;21.94
78857;BME280;68207;50.078;19.936;2023-05-10T12:40:08;99073.88;;;27.10;21.73
78857;BME280;68207;50.078;19.936;2023-05-10T12:42:35;99073.67;;;27.19;21.65
78857;BME280;68207;50.078;19.936;2023-05-10T12:45:04;99072.31;;;27.33;21.66
78857;BME280;68207;50.078;19.936;2023-05-10T12:47:30;99067.91;;;27.44;21.57
78857;BME280;68207;50.078;19.936;2023-05-10T12:49:56;99064.34;;;27.56;21.54
78857;BME280;68207;50.078;19.936;2023-05-10T12:52:21;99063.35;;;27.59;21.06
78857;BME280;68207;50.078;19.936;2023-05-10T12:54:46;99060.89;;;27.51;21.46
78857;BME280;68207;50.078;19.936;2023-05-10T12:57:12;99053.15;;;27.44;21.67
78857;BME280;68207;50.078;19.936;2023-05-10T12:59:38;99059.59;;;27.49;21.97
78857;BME280;68207;50.078;19.936;2023-05-10T13:02:03;99055.55;;;27.50;21.56
78857;BME280;68207;50.078;19.936;2023-05-10T13:04:28;99057.02;;;27.51;21.41
78857;BME280;68207;50.078;19.936;2023-05-10T13:06:54;99051.52;;;27.47;21.06
78857;BME280;68207;50.078;19.936;2023-05-10T13:09:23;99053.58;;;27.45;21.74
78857;BME280;68207;50.078;19.936;2023-05-10T13:11:48;99050.59;;;27.50;21.21
78857;BME280;68207;50.078;19.936;2023-05-10T13:14:14;99046.64;;;27.58;21.32
78857;BME280;68207;50.078;19.936;2023-05-10T13:16:39;99047.46;;;27.53;21.12
78857;BME280;68207;50.078;19.936;2023-05-10T13:19:05;99042.92;;;27.43;21.38
78857;BME280;68207;50.078;19.936;2023-05-10T13:21:30;99044.73;;;27.39;21.26
78857;BME280;68207;50.078;19.936;2023-05-10T13:23:55;99041.32;;;27.36;21.24
78857;BME280;68207;50.078;19.936;2023-05-10T13:26:20;99037.60;;;27.38;21.17